Moorhead State University, Minnesota
Current Conditions -  °F | °C
As of 10:53 PM on Saturday 25 Oct 2014 (Local Time) from KFAR Reporting Station
Clear Clear  
Wind Chill: 39°   Ceiling: Unl
Heat Index: 39°   Visibility: 10mi
Dew Point: 24°   Wind: 3mph
Humidity: 55%   Direction: 160°SSE
Pressure: 30.02"   Gusts: NA
Location:  46.8656°N, 96.7581°W
Report Text: KFAR 260353Z 16003KT 10SM CLR 04/M04 A3002 RMK AO2 SLP170 T00391044
Loading
Personal Weather Stations






























Interactive Weather Map
Tropical Storm Tracking
New forecast layout! Learn more

10-Day Weather Forecast

Advertisements
Track Severe Weather on mobile